Annandale, Virginia
Current Conditions -  °F | °C
As of 12:58 PM on Wednesday 28 Jan 2015 (Local Time) from KDAA Reporting Station
Clear Clear  
Wind Chill: -5°   Ceiling: Unl
Heat Index:   Visibility: 10mi
Dew Point: -14°   Wind: 16mph
Humidity: 34%   Direction: 320°NW
Pressure: 30.24"   Gusts: 23mph
Location:  38.83°N, 77.19°W
Report Text: KDAA 281758Z AUTO 32014G20KT 10SM CLR 01/M13 A3024 RMK AO2 SLP244 T00081135 10008 21051 58003
Loading
Personal Weather Stations






























Interactive Weather Map New forecast layout! Learn more

10-Day Weather Forecast

Advertisements
Track Severe Weather on mobile